orgullodominicano.com alexa rank chart, orgullodominicano.com alexa rank daily changes

orgullodominicano.com alexa rank chart, orgullodominicano.com alexa rank daily changes

orgullodominicano.com
Actual rank:
117 650

RANK HISTORY

Date Rank Diff
2017/05/28 117 650 +270
2017/05/27 117 380 +467
2017/05/26 116 913 +1 716
2017/05/25 115 197 -1 263
2017/05/24 116 460 +1 311
2017/05/23 115 149 +2 691
2017/05/22 112 458 +178
2017/05/21 112 280 +323
2017/05/20 111 957 +3 449
2017/05/19 108 508 +1 027
2017/05/18 107 481 -1 016
2017/05/17 108 497 -164
2017/05/16 108 661 -1 114
2017/05/15 109 775 -597
2017/05/14 110 372 -700
2017/05/13 111 072 +2 727
2017/05/12 108 345 -939
2017/05/11 109 284 -1 808
2017/05/10 111 092 +684
2017/05/09 110 408 +1 609
2017/05/08 108 799 +2 667
2017/05/07 106 132 -3 049
2017/05/06 109 181 +2 207
2017/05/05 106 974 +110
2017/05/04 106 864 -671
2017/05/03 107 535 +1 262
2017/05/02 106 273 +2 389
2017/05/01 103 884 +4 016
2017/04/30 99 868 +996
2017/04/29 98 872 +2 616
2017/04/28 96 256 +354
2017/04/27 95 902 +1 362
2017/04/26 94 540 +588
2017/04/25 93 952 +2 070
2017/04/24 91 882 +459
2017/04/23 91 423 +249
2017/04/22 91 174 +935
2017/04/21 90 239 -1 161
2017/04/20 91 400 -2 103
2017/04/19 93 503 +173
2017/04/18 93 330 +2 029
2017/04/17 91 301 +1 537
2017/04/16 89 764 +710
2017/04/15 89 054 -1 269
2017/04/14 90 323 -1 625
2017/04/13 91 948 -647
2017/04/12 92 595 -730
2017/04/11 93 325 +396
2017/04/10 92 929 +1 157
2017/04/09 91 772 +465
2017/04/08 91 307 -979
2017/04/07 92 286 -588
2017/04/06 92 874 -1 146
2017/04/05 94 020 +593
2017/04/04 93 427 +1 008
2017/04/03 92 419 +293
2017/04/02 92 126 -2 502
2017/04/01 94 628 -1 394
2017/03/31 96 022 -665
2017/03/30 96 687 -265
2017/03/29 96 952

WIDGET FOR YOUR SITE

DOMAINS WITH THE NEAREST RANK

Domain Rank
valueonline.cn 117 645
unitradecoin.com 117 646
gzgjj.gov.cn 117 647
space4updating.win 117 648
posao.hr 117 649
orgullodominicano.com 117 650
daily-manga.com 117 651
isilines.fr 117 652
dsi-j.net 117 653
yybf.com 117 654
footdirect24.net 117 655

DOMAINS WITH THE NEAREST RANK BY TLD .com

Domain Rank
purplecarrot.com 117 640
easynepalityping.com 117 641
fujitsu-general.com 117 642
acc4arab.com 117 643
unitradecoin.com 117 646
orgullodominicano.com 117 650
daily-manga.com 117 651
yybf.com 117 654
bteekh.com 117 657
youthkorners.com 117 659
wikijavan.com 117 660